Time;durP1;ratioP1;P1;durP2;ratioP2;P2;SDS_P1;SDS_P2;PMS_P1;PMS_P2;Temp;Humidity;BMP_temperature;BMP_pressure;BME280_temperature;BME280_humidity;BME280_pressure;Samples;Min_cycle;Max_cycle;Signal;HPM_P1;HPM_P2
2022/01/15 00:00:43;;;;;;;99.97;23.40;;;2.60;92.40;;;;;;6208731;28;20049;-83
2022/01/15 00:03:46;;;;;;;77.50;21.17;;;2.70;92.40;;;;;;6208260;28;20066;-82
2022/01/15 00:06:48;;;;;;;95.00;21.50;;;2.70;92.30;;;;;;6207379;28;20109;-83
2022/01/15 00:09:50;;;;;;;125.25;23.63;;;2.80;92.20;;;;;;6208858;28;20078;-82
2022/01/15 00:12:52;;;;;;;85.57;19.88;;;2.80;91.90;;;;;;6208110;28;20046;-82
2022/01/15 00:16:04;;;;;;;76.32;18.30;;;2.80;91.80;;;;;;6208219;28;20046;-83
2022/01/15 00:19:09;;;;;;;77.78;16.75;;;2.70;91.70;;;;;;6206801;28;20046;-81
2022/01/15 00:22:13;;;;;;;76.05;17.55;;;2.60;91.70;;;;;;6206680;28;20053;-83
2022/01/15 00:25:16;;;;;;;63.70;17.48;;;2.40;91.80;;;;;;6208138;28;20044;-83
2022/01/15 00:28:18;;;;;;;75.60;19.70;;;2.30;91.90;;;;;;6208411;28;20132;-82
2022/01/15 00:31:20;;;;;;;54.65;16.40;;;2.30;92.10;;;;;;6207460;28;20056;-82
2022/01/15 00:34:23;;;;;;;65.28;17.33;;;2.20;92.00;;;;;;6207532;28;20423;-82
2022/01/15 00:37:24;;;;;;;60.58;17.23;;;2.10;92.10;;;;;;6207838;28;20042;-82
2022/01/15 00:40:26;;;;;;;68.85;18.35;;;2.20;92.20;;;;;;6208264;28;20062;-82
2022/01/15 00:43:28;;;;;;;49.50;16.00;;;2.20;92.00;;;;;;6229801;22;20054;-83
2022/01/15 00:46:30;;;;;;;84.57;17.15;;;2.20;91.90;;;;;;6204532;28;20570;-83
2022/01/15 00:49:33;;;;;;;45.65;15.95;;;2.20;91.90;;;;;;6205119;28;20547;-84
2022/01/15 00:52:35;;;;;;;56.65;16.23;;;2.20;92.00;;;;;;6205532;28;20050;-83
2022/01/15 00:55:37;;;;;;;68.13;19.85;;;2.10;92.10;;;;;;6204963;28;20117;-83
2022/01/15 00:58:39;;;;;;;54.40;16.67;;;2.10;92.00;;;;;;6206286;28;20054;-83
2022/01/15 01:01:41;;;;;;;53.80;18.95;;;2.20;92.20;;;;;;6205963;28;20430;-84
2022/01/15 01:04:44;;;;;;;76.25;17.58;;;2.30;92.20;;;;;;6203934;28;20042;-83
2022/01/15 01:07:46;;;;;;;54.75;16.92;;;2.30;91.90;;;;;;6217503;28;20427;-84
2022/01/15 01:10:55;;;;;;;63.53;18.58;;;2.30;91.80;;;;;;6227542;28;20054;-83
2022/01/15 01:20:52;;;;;;;38.72;13.07;;;2.40;91.80;;;;;;6228442;28;20045;-83
2022/01/15 01:23:54;;;;;;;53.90;16.23;;;2.50;91.50;;;;;;6228677;28;20056;-83
2022/01/15 01:26:59;;;;;;;60.13;15.05;;;2.40;91.60;;;;;;6227958;28;20045;-82
2022/01/15 01:30:13;;;;;;;67.20;17.13;;;2.30;91.70;;;;;;6227478;28;20736;-83
2022/01/15 01:33:31;;;;;;;99.78;17.55;;;2.20;91.30;;;;;;6227294;28;20087;-84
2022/01/15 01:36:42;;;;;;;63.17;19.23;;;1.90;91.70;;;;;;6227347;28;20060;-84
2022/01/15 01:39:48;;;;;;;60.85;17.42;;;1.70;92.40;;;;;;6227068;28;20526;-83
2022/01/15 01:46:33;;;;;;;49.55;16.42;;;1.60;92.60;;;;;;6177279;28;20066;-84
2022/01/15 01:49:35;;;;;;;54.40;17.67;;;1.60;92.80;;;;;;6178595;28;20080;-84
2022/01/15 01:52:38;;;;;;;59.83;19.20;;;1.70;92.80;;;;;;6178212;28;20047;-83
2022/01/15 01:55:40;;;;;;;51.78;18.05;;;1.80;92.50;;;;;;6177703;28;20058;-83
2022/01/15 01:58:42;;;;;;;64.50;19.27;;;1.80;92.30;;;;;;6178074;28;20074;-83
2022/01/15 02:01:45;;;;;;;48.25;14.90;;;1.80;92.30;;;;;;6177330;28;20217;-83
2022/01/15 02:04:46;;;;;;;47.10;16.10;;;1.60;92.40;;;;;;6177511;28;20780;-83
2022/01/15 02:07:50;;;;;;;50.20;16.40;;;1.60;92.50;;;;;;6205952;28;20046;-84
2022/01/15 02:10:52;;;;;;;69.32;16.50;;;1.60;92.70;;;;;;6226533;28;20049;-84
2022/01/15 02:13:54;;;;;;;57.40;17.02;;;1.60;92.50;;;;;;6225747;28;20045;-84
2022/01/15 02:16:56;;;;;;;51.80;15.88;;;1.70;92.60;;;;;;6226274;28;20046;-84
2022/01/15 02:20:24;;;;;;;52.72;15.60;;;1.60;92.40;;;;;;6225534;28;20565;-83
2022/01/15 02:23:34;;;;;;;48.78;17.15;;;1.70;92.30;;;;;;6226453;28;20125;-84
2022/01/15 02:26:38;;;;;;;56.63;15.07;;;1.60;92.50;;;;;;6225453;28;20042;-83
2022/01/15 02:29:40;;;;;;;44.10;13.73;;;1.60;92.50;;;;;;6226609;28;20046;-85
2022/01/15 02:32:41;;;;;;;48.28;11.68;;;1.60;92.40;;;;;;6226498;28;20233;-84
2022/01/15 02:35:44;;;;;;;47.38;13.68;;;1.60;92.50;;;;;;6226570;28;20169;-83
2022/01/15 02:38:47;;;;;;;47.83;15.85;;;1.70;92.50;;;;;;6225886;28;20049;-84
2022/01/15 02:41:49;;;;;;;45.17;17.13;;;1.60;92.60;;;;;;6225735;28;20060;-83
2022/01/15 02:44:58;;;;;;;62.83;17.88;;;1.50;92.40;;;;;;6225641;28;20056;-85
2022/01/15 02:48:02;;;;;;;65.93;15.45;;;1.40;92.90;;;;;;6226519;28;20054;-84
2022/01/15 02:51:05;;;;;;;56.40;18.83;;;1.50;92.80;;;;;;6226113;28;20046;-84
2022/01/15 02:54:08;;;;;;;44.03;16.33;;;1.40;92.70;;;;;;6226456;28;20049;-85
2022/01/15 02:57:09;;;;;;;63.97;16.73;;;1.40;92.90;;;;;;6234446;28;20042;-84
2022/01/15 03:00:12;;;;;;;44.70;13.60;;;1.50;93.00;;;;;;6234439;28;20518;-84
2022/01/15 03:03:14;;;;;;;62.35;17.77;;;1.60;92.80;;;;;;6234932;28;20056;-85
2022/01/15 03:06:19;;;;;;;42.10;14.30;;;1.60;92.60;;;;;;6235249;28;20104;-83
2022/01/15 03:09:21;;;;;;;63.22;18.50;;;1.60;92.60;;;;;;6235987;28;20076;-83
2022/01/15 03:12:24;;;;;;;51.50;16.20;;;1.60;92.60;;;;;;6235921;28;20046;-82
2022/01/15 03:15:26;;;;;;;52.65;18.23;;;1.60;92.80;;;;;;6236015;28;20050;-83
2022/01/15 03:18:28;;;;;;;45.83;17.50;;;1.60;92.70;;;;;;6235265;28;20042;-83
2022/01/15 03:21:31;;;;;;;50.20;16.63;;;1.60;92.60;;;;;;6234979;28;20077;-83
2022/01/15 03:24:33;;;;;;;62.95;17.40;;;1.60;92.80;;;;;;6234840;28;20052;-83
2022/01/15 03:27:35;;;;;;;60.03;14.32;;;1.60;92.70;;;;;;6235898;28;20148;-82
2022/01/15 03:30:37;;;;;;;57.10;19.15;;;1.70;92.70;;;;;;6235530;28;20050;-83
2022/01/15 03:33:39;;;;;;;46.75;17.98;;;1.60;92.70;;;;;;6235471;28;20045;-83
2022/01/15 03:36:42;;;;;;;49.30;17.80;;;1.70;92.80;;;;;;6236076;28;20422;-83
2022/01/15 03:39:46;;;;;;;64.45;17.67;;;1.80;92.70;;;;;;6236245;28;20091;-83
2022/01/15 03:42:48;;;;;;;64.35;17.35;;;1.80;92.80;;;;;;6235967;28;20048;-82
2022/01/15 03:45:50;;;;;;;57.72;17.17;;;1.80;92.40;;;;;;6234493;28;20050;-83
2022/01/15 03:48:52;;;;;;;68.07;19.90;;;1.80;92.40;;;;;;6235963;28;20052;-83
2022/01/15 03:51:56;;;;;;;39.58;16.35;;;1.80;92.30;;;;;;6236087;28;20184;-82
2022/01/15 03:54:58;;;;;;;60.40;22.45;;;1.70;92.40;;;;;;6235851;28;20398;-83
2022/01/15 03:58:00;;;;;;;53.42;17.98;;;1.60;92.70;;;;;;6236847;28;20053;-82
2022/01/15 04:01:02;;;;;;;39.35;16.73;;;1.50;92.70;;;;;;6237798;28;20046;-82
2022/01/15 04:04:04;;;;;;;58.63;20.70;;;1.40;92.80;;;;;;6238198;28;20061;-83
2022/01/15 04:07:07;;;;;;;56.30;16.70;;;1.40;92.90;;;;;;6234308;28;20496;-83
2022/01/15 04:10:11;;;;;;;53.13;21.88;;;1.40;93.10;;;;;;6221432;28;20048;-82
2022/01/15 04:13:15;;;;;;;56.85;18.98;;;1.40;93.00;;;;;;6230305;28;20042;-82
2022/01/15 04:16:17;;;;;;;56.90;20.83;;;1.40;92.90;;;;;;6231416;28;20135;-82
2022/01/15 04:19:19;;;;;;;51.15;17.38;;;1.30;92.90;;;;;;6230695;28;20053;-82
2022/01/15 04:22:22;;;;;;;51.63;17.60;;;1.40;92.90;;;;;;6230196;28;20422;-82
2022/01/15 04:25:24;;;;;;;39.53;12.27;;;1.30;92.90;;;;;;6230065;28;20184;-83
2022/01/15 04:28:28;;;;;;;48.35;19.08;;;1.30;93.00;;;;;;6229097;28;20139;-83
2022/01/15 04:31:35;;;;;;;52.42;19.92;;;1.30;93.10;;;;;;6229850;28;20060;-84
2022/01/15 04:34:37;;;;;;;50.70;17.98;;;1.30;93.00;;;;;;6229393;28;20463;-82
2022/01/15 04:37:44;;;;;;;36.05;16.25;;;1.30;93.00;;;;;;6229079;28;20076;-82
2022/01/15 04:40:45;;;;;;;52.08;18.88;;;1.30;92.90;;;;;;6228479;28;20057;-83
2022/01/15 04:43:47;;;;;;;39.75;16.25;;;1.30;93.00;;;;;;6229686;28;20061;-83
2022/01/15 04:46:49;;;;;;;38.67;16.60;;;1.20;92.90;;;;;;6228399;28;20146;-83
2022/01/15 04:49:51;;;;;;;40.15;17.77;;;1.20;93.10;;;;;;6227798;28;20419;-82
2022/01/15 04:52:54;;;;;;;40.22;16.55;;;1.20;93.20;;;;;;6228759;28;20045;-82
2022/01/15 04:55:56;;;;;;;33.92;13.50;;;1.30;93.20;;;;;;6228638;28;20058;-82
2022/01/15 04:58:58;;;;;;;47.97;19.17;;;1.30;92.90;;;;;;6229061;28;20049;-82
2022/01/15 05:02:00;;;;;;;48.50;20.02;;;1.30;93.10;;;;;;6228721;28;20038;-82
2022/01/15 05:05:02;;;;;;;44.60;19.90;;;1.30;93.10;;;;;;6228231;28;20430;-83
2022/01/15 05:08:06;;;;;;;51.50;18.83;;;1.20;92.70;;;;;;6229558;28;20053;-83
2022/01/15 05:11:14;;;;;;;52.33;21.27;;;1.20;92.90;;;;;;6216575;28;20092;-83
2022/01/15 05:14:18;;;;;;;54.97;18.60;;;1.30;92.90;;;;;;6229284;28;20049;-83
2022/01/15 05:17:20;;;;;;;51.95;19.35;;;1.40;93.00;;;;;;6228666;28;20044;-82
2022/01/15 05:20:22;;;;;;;43.35;16.95;;;1.30;92.60;;;;;;6229403;28;20061;-83
2022/01/15 05:23:25;;;;;;;49.05;18.58;;;1.30;92.60;;;;;;6228507;28;20041;-83
2022/01/15 05:26:27;;;;;;;53.15;21.00;;;1.20;92.70;;;;;;6227948;28;20530;-82
2022/01/15 05:29:29;;;;;;;53.83;22.58;;;1.10;92.90;;;;;;6228393;28;20046;-82
2022/01/15 05:32:30;;;;;;;46.75;18.70;;;1.10;93.10;;;;;;6234956;28;20542;-83
2022/01/15 05:35:32;;;;;;;36.50;14.77;;;1.20;92.90;;;;;;6230163;28;20052;-83
2022/01/15 05:38:39;;;;;;;50.22;21.65;;;1.10;92.80;;;;;;6230565;28;20111;-82
2022/01/15 05:41:41;;;;;;;44.10;17.45;;;1.10;93.10;;;;;;6229253;28;20046;-83
2022/01/15 05:44:43;;;;;;;37.78;13.30;;;1.10;93.00;;;;;;6229908;28;20092;-83
2022/01/15 05:47:45;;;;;;;57.15;22.10;;;1.10;93.10;;;;;;6229826;28;20049;-82
2022/01/15 05:50:47;;;;;;;44.08;17.63;;;1.00;93.00;;;;;;6228883;28;20046;-83
2022/01/15 05:53:50;;;;;;;53.83;20.63;;;1.10;93.30;;;;;;6228538;28;20045;-82
2022/01/15 05:56:52;;;;;;;46.03;19.95;;;1.10;93.20;;;;;;6228830;28;20495;-83
2022/01/15 05:59:54;;;;;;;48.40;18.67;;;1.20;92.90;;;;;;6228779;28;20486;-82
2022/01/15 06:02:55;;;;;;;62.88;22.33;;;1.10;92.70;;;;;;6228651;28;20414;-82
2022/01/15 06:05:57;;;;;;;47.83;19.15;;;1.10;92.80;;;;;;6228173;28;20056;-83
2022/01/15 06:09:00;;;;;;;41.67;17.00;;;1.10;92.80;;;;;;6228215;28;20153;-83
2022/01/15 06:12:02;;;;;;;48.00;19.25;;;1.00;92.90;;;;;;6216159;28;20129;-84
2022/01/15 06:15:05;;;;;;;54.67;21.00;;;1.10;93.20;;;;;;6202939;28;20042;-82
2022/01/15 06:18:07;;;;;;;47.28;19.83;;;1.20;93.10;;;;;;6203544;28;20418;-82
2022/01/15 06:21:09;;;;;;;42.05;19.65;;;1.30;92.90;;;;;;6203103;28;20101;-83
2022/01/15 06:24:12;;;;;;;54.40;20.38;;;1.40;92.70;;;;;;6203125;28;20102;-84
2022/01/15 06:27:16;;;;;;;37.17;14.32;;;1.40;92.60;;;;;;6203019;28;20050;-83
2022/01/15 06:30:18;;;;;;;40.95;18.08;;;1.40;92.30;;;;;;6203027;28;20042;-83
2022/01/15 06:33:19;;;;;;;45.40;19.58;;;1.40;92.60;;;;;;6203142;28;20504;-82
2022/01/15 06:36:21;;;;;;;36.70;17.52;;;1.40;92.40;;;;;;6203244;28;20054;-82
2022/01/15 06:39:24;;;;;;;46.17;15.48;;;1.50;92.40;;;;;;6204031;28;20050;-82
2022/01/15 06:42:26;;;;;;;43.35;18.83;;;1.50;92.20;;;;;;6229250;23;20129;-80
2022/01/15 06:45:28;;;;;;;48.30;20.55;;;1.50;92.30;;;;;;6224099;28;20103;-80
2022/01/15 06:48:30;;;;;;;36.92;16.08;;;1.50;92.40;;;;;;6223740;28;20054;-79
2022/01/15 06:51:32;;;;;;;52.33;18.70;;;1.50;92.30;;;;;;6224740;28;20056;-82
2022/01/15 06:54:35;;;;;;;49.65;17.02;;;1.40;92.60;;;;;;6224072;28;20503;-82
2022/01/15 06:57:37;;;;;;;48.28;17.27;;;1.50;92.50;;;;;;6223668;28;20046;-82
2022/01/15 07:00:39;;;;;;;45.30;16.27;;;1.60;92.50;;;;;;6224648;28;20075;-80
2022/01/15 07:03:41;;;;;;;54.17;21.17;;;1.60;92.30;;;;;;6224278;28;20046;-81
2022/01/15 07:06:42;;;;;;;45.97;15.88;;;1.50;92.30;;;;;;6224262;28;20527;-80
2022/01/15 07:09:45;;;;;;;51.28;19.30;;;1.60;92.60;;;;;;6225200;28;20470;-82
2022/01/15 07:12:47;;;;;;;57.67;21.20;;;1.70;92.50;;;;;;6234457;28;20057;-78
2022/01/15 07:15:49;;;;;;;55.75;19.17;;;1.70;92.40;;;;;;6248800;28;20065;-79
2022/01/15 07:18:51;;;;;;;50.05;16.95;;;1.80;92.40;;;;;;6229335;28;20045;-81
2022/01/15 07:21:53;;;;;;;46.38;17.58;;;1.80;92.30;;;;;;6235996;28;20124;-82
2022/01/15 07:24:56;;;;;;;47.08;19.85;;;1.80;92.20;;;;;;6226991;28;20046;-82
2022/01/15 07:27:58;;;;;;;30.83;13.45;;;1.90;92.20;;;;;;6229322;28;20054;-82
2022/01/15 07:31:00;;;;;;;44.25;16.85;;;1.90;92.10;;;;;;6235931;28;20060;-80
2022/01/15 07:34:03;;;;;;;43.38;18.02;;;1.90;92.10;;;;;;6228009;28;20046;-81
2022/01/15 07:37:05;;;;;;;49.72;20.30;;;2.00;92.10;;;;;;6230897;28;20459;-82
2022/01/15 07:40:09;;;;;;;53.42;19.73;;;2.00;92.20;;;;;;6252318;28;20130;-82
2022/01/15 07:43:11;;;;;;;40.45;17.70;;;2.00;92.30;;;;;;6255990;28;20050;-81
2022/01/15 07:46:13;;;;;;;47.33;18.95;;;2.00;91.90;;;;;;6255865;28;20057;-82
2022/01/15 07:49:15;;;;;;;29.90;13.55;;;2.10;92.20;;;;;;6255885;28;20050;-82
2022/01/15 07:52:19;;;;;;;36.65;16.42;;;2.20;92.00;;;;;;6256379;28;20148;-81
2022/01/15 07:55:23;;;;;;;30.48;14.70;;;2.20;91.90;;;;;;6256667;28;20073;-81
2022/01/15 07:58:25;;;;;;;23.55;11.13;;;2.20;91.70;;;;;;6256211;28;20049;-82
2022/01/15 08:01:28;;;;;;;44.95;17.67;;;2.10;91.70;;;;;;6255968;28;20045;-80
2022/01/15 08:04:29;;;;;;;35.15;15.35;;;2.00;92.00;;;;;;6255936;28;20053;-82
2022/01/15 08:07:31;;;;;;;46.15;16.55;;;2.00;92.00;;;;;;6259036;28;20056;-81
2022/01/15 08:10:34;;;;;;;35.80;13.80;;;2.00;91.80;;;;;;6256740;28;20442;-82
2022/01/15 08:13:36;;;;;;;37.38;17.38;;;1.90;91.90;;;;;;6242121;28;20438;-81
2022/01/15 08:16:38;;;;;;;45.65;19.10;;;1.90;92.10;;;;;;6230887;28;20057;-81
2022/01/15 08:19:39;;;;;;;32.72;14.95;;;2.00;92.10;;;;;;6231564;28;20145;-81
2022/01/15 08:22:42;;;;;;;39.20;17.38;;;2.00;91.90;;;;;;6231376;28;20531;-81
2022/01/15 08:25:45;;;;;;;38.00;16.70;;;1.90;92.00;;;;;;6231044;28;20129;-81
2022/01/15 08:28:47;;;;;;;47.88;20.10;;;1.90;92.00;;;;;;6230432;28;20499;-82
2022/01/15 08:31:49;;;;;;;24.17;11.80;;;2.00;92.00;;;;;;6238602;28;20113;-81
2022/01/15 08:34:51;;;;;;;40.53;15.52;;;2.10;91.60;;;;;;6234062;28;20054;-81
2022/01/15 08:37:54;;;;;;;35.55;15.43;;;2.10;91.70;;;;;;6231664;28;20129;-82
2022/01/15 08:40:57;;;;;;;38.72;16.02;;;2.20;91.50;;;;;;6231558;28;20061;-79
2022/01/15 08:43:59;;;;;;;38.92;16.38;;;2.10;91.50;;;;;;6231869;28;20135;-80
2022/01/15 08:47:02;;;;;;;36.20;18.05;;;2.20;91.50;;;;;;6230489;28;20057;-80
2022/01/15 08:50:05;;;;;;;40.85;17.10;;;2.20;91.30;;;;;;6230650;28;20050;-82
2022/01/15 08:53:07;;;;;;;39.78;18.05;;;2.20;91.40;;;;;;6229841;28;20104;-81
2022/01/15 08:56:10;;;;;;;42.10;16.77;;;2.20;91.30;;;;;;6242398;28;20049;-81
2022/01/15 08:59:12;;;;;;;51.38;21.65;;;2.20;91.00;;;;;;6255114;28;20498;-81
2022/01/15 09:02:14;;;;;;;39.20;17.65;;;2.10;91.00;;;;;;6206250;28;20137;-82
2022/01/15 09:05:16;;;;;;;34.83;16.98;;;2.10;91.30;;;;;;6222311;28;20414;-81
2022/01/15 09:08:21;;;;;;;37.42;17.45;;;2.10;91.30;;;;;;6230892;28;20388;-82
2022/01/15 09:11:25;;;;;;;43.97;17.40;;;2.10;91.30;;;;;;6230913;28;20053;-80
2022/01/15 09:14:27;;;;;;;30.92;13.50;;;2.20;91.20;;;;;;6222654;28;20137;-82
2022/01/15 09:17:29;;;;;;;29.33;14.50;;;2.10;91.00;;;;;;6230387;28;20046;-82
2022/01/15 09:20:31;;;;;;;37.00;16.42;;;2.10;91.10;;;;;;6230196;28;20053;-82
2022/01/15 09:23:32;;;;;;;41.88;18.05;;;2.10;91.30;;;;;;6231698;28;20046;-82
2022/01/15 09:33:11;;;;;;;40.50;17.58;;;2.30;91.10;;;;;;6207038;28;20034;-82
2022/01/15 09:36:13;;;;;;;42.33;17.00;;;2.30;91.00;;;;;;6208066;28;20096;-82
2022/01/15 09:39:15;;;;;;;39.83;17.92;;;2.50;91.20;;;;;;6207216;28;20492;-82
2022/01/15 09:42:19;;;;;;;39.03;17.02;;;2.60;91.00;;;;;;6207295;28;20765;-81
2022/01/15 09:45:23;;;;;;;38.47;16.90;;;2.70;90.70;;;;;;6206132;28;20181;-81
2022/01/15 09:48:29;;;;;;;40.15;16.88;;;2.80;90.70;;;;;;6206192;28;20046;-81
2022/01/15 09:51:32;;;;;;;35.97;16.65;;;2.90;90.50;;;;;;6206631;28;20076;-83
2022/01/15 09:54:34;;;;;;;44.72;18.95;;;3.00;90.40;;;;;;6207506;28;20061;-82
2022/01/15 09:57:39;;;;;;;48.22;19.77;;;3.00;90.40;;;;;;6214700;28;20051;-83
2022/01/15 10:00:41;;;;;;;33.53;16.05;;;3.00;90.40;;;;;;6206666;28;20057;-83
2022/01/15 10:03:43;;;;;;;41.08;16.55;;;3.10;90.40;;;;;;6185996;28;20043;-82
2022/01/15 10:07:09;;;;;;;43.15;17.42;;;3.10;90.30;;;;;;6195870;28;20182;-82
2022/01/15 10:10:16;;;;;;;41.35;16.63;;;3.20;90.40;;;;;;6191054;28;20129;-83
2022/01/15 10:13:20;;;;;;;43.67;17.15;;;3.10;90.30;;;;;;6205354;28;20043;-80
2022/01/15 10:16:22;;;;;;;48.03;14.35;;;3.10;90.40;;;;;;6221463;28;20050;-82
2022/01/15 10:19:35;;;;;;;44.65;15.40;;;3.20;90.40;;;;;;6206131;28;20073;-82
2022/01/15 10:22:40;;;;;;;41.72;18.00;;;3.20;90.20;;;;;;6229346;28;20049;-83
2022/01/15 10:25:42;;;;;;;33.33;16.35;;;3.10;90.40;;;;;;6250084;28;20199;-81
2022/01/15 10:28:59;;;;;;;40.58;17.08;;;3.30;90.50;;;;;;6243563;28;20166;-81
2022/01/15 10:32:01;;;;;;;46.05;17.27;;;3.40;90.30;;;;;;6219956;28;20095;-81
2022/01/15 10:35:11;;;;;;;27.33;12.93;;;3.50;90.30;;;;;;6226157;28;20356;-81
2022/01/15 10:38:16;;;;;;;40.72;18.38;;;3.30;90.20;;;;;;6228547;28;20054;-82
2022/01/15 10:41:34;;;;;;;44.42;15.20;;;3.20;90.50;;;;;;6231187;28;20073;-82
2022/01/15 10:44:38;;;;;;;;;;;3.20;90.70;;;;;;6209023;28;20077;-79
2022/01/15 10:47:42;;;;;;;45.33;17.33;;;3.20;90.50;;;;;;6225292;28;20037;-79
2022/01/15 10:50:44;;;;;;;34.40;13.20;;;3.10;90.70;;;;;;6213379;28;20081;-81
2022/01/15 10:53:47;;;;;;;42.75;17.48;;;3.10;90.80;;;;;;6207108;28;20050;-82
2022/01/15 10:57:06;;;;;;;47.80;19.45;;;3.10;90.90;;;;;;6222577;28;20047;-82
2022/01/15 11:00:24;;;;;;;45.47;17.88;;;3.10;91.10;;;;;;6232984;28;20062;-82
2022/01/15 11:03:37;;;;;;;44.70;18.05;;;3.20;90.90;;;;;;6216288;28;20046;-81
2022/01/15 11:06:40;;;;;;;40.30;17.10;;;3.20;90.80;;;;;;6229668;28;20057;-81
2022/01/15 11:09:44;;;;;;;33.95;12.80;;;3.30;91.10;;;;;;6230011;28;20120;-80
2022/01/15 11:12:47;;;;;;;44.85;19.05;;;3.30;90.70;;;;;;6231424;28;20050;-81
2022/01/15 11:15:56;;;;;;;25.65;12.73;;;3.20;90.90;;;;;;6229270;28;20105;-81
2022/01/15 11:18:59;;;;;;;41.58;16.70;;;3.30;90.80;;;;;;6218180;28;20057;-82
2022/01/15 11:22:02;;;;;;;32.63;14.90;;;3.40;90.80;;;;;;6209448;28;20133;-82
2022/01/15 11:25:05;;;;;;;46.33;19.00;;;3.40;90.70;;;;;;6212572;28;20056;-80
2022/01/15 11:28:07;;;;;;;32.28;11.48;;;3.50;90.80;;;;;;6231956;28;20511;-81
2022/01/15 11:31:12;;;;;;;26.45;11.95;;;3.60;90.50;;;;;;6227436;28;20574;-84
2022/01/15 11:34:16;;;;;;;41.25;14.85;;;3.60;90.20;;;;;;6215042;28;20189;-82
2022/01/15 11:37:19;;;;;;;42.55;16.50;;;3.50;90.40;;;;;;6215948;28;20129;-82
2022/01/15 11:40:43;;;;;;;41.30;16.92;;;3.60;90.80;;;;;;6212097;28;20488;-80
2022/01/15 11:43:45;;;;;;;42.50;17.38;;;3.70;90.50;;;;;;6230263;28;20046;-83
2022/01/15 11:46:51;;;;;;;37.55;16.83;;;3.80;90.30;;;;;;6219543;28;20057;-83
2022/01/15 11:49:54;;;;;;;33.72;16.10;;;3.90;90.00;;;;;;6227634;28;20050;-81
2022/01/15 11:52:55;;;;;;;43.50;18.88;;;4.00;89.80;;;;;;6222843;28;20133;-81
2022/01/15 11:56:15;;;;;;;36.92;16.95;;;4.00;89.40;;;;;;6228718;28;20044;-82
2022/01/15 11:59:46;;;;;;;41.53;19.17;;;4.00;90.00;;;;;;6210666;28;20057;-80
2022/01/15 12:03:00;;;;;;;45.78;20.00;;;4.10;90.00;;;;;;6207505;28;20190;-80
2022/01/15 12:06:02;;;;;;;42.42;19.00;;;4.10;89.40;;;;;;6206796;28;20050;-82
2022/01/15 12:09:31;;;;;;;44.80;16.83;;;4.30;89.90;;;;;;6208309;28;20039;-81
2022/01/15 12:12:46;;;;;;;40.70;18.38;;;4.30;89.00;;;;;;6208155;28;20590;-82
2022/01/15 12:15:50;;;;;;;51.03;22.02;;;4.20;88.70;;;;;;6208384;28;20054;-81
2022/01/15 12:18:57;;;;;;;41.92;16.92;;;4.20;89.70;;;;;;6229938;28;20497;-81
2022/01/15 12:21:59;;;;;;;45.55;18.13;;;4.20;88.50;;;;;;6232745;28;20128;-81
2022/01/15 12:25:03;;;;;;;43.30;17.40;;;4.20;88.90;;;;;;6229237;28;20481;-82
2022/01/15 12:28:07;;;;;;;45.67;20.35;;;4.20;88.60;;;;;;6220006;28;20057;-81
2022/01/15 12:31:09;;;;;;;43.05;20.23;;;4.40;88.90;;;;;;6208945;28;20567;-81
2022/01/15 12:34:24;;;;;;;50.90;19.60;;;4.50;88.10;;;;;;6207589;28;20114;-79
2022/01/15 12:37:26;;;;;;;50.97;19.80;;;4.60;87.70;;;;;;6206436;28;20042;-83
2022/01/15 12:40:34;;;;;;;40.60;18.98;;;4.70;88.00;;;;;;6208656;28;20136;-82
2022/01/15 12:43:37;;;;;;;40.45;16.25;;;4.80;87.50;;;;;;6206454;28;20050;-79
2022/01/15 12:46:39;;;;;;;46.20;19.05;;;4.90;87.40;;;;;;6200973;28;20129;-79
2022/01/15 12:49:45;;;;;;;57.22;23.30;;;5.00;88.80;;;;;;6202534;28;20046;-78
2022/01/15 12:52:46;;;;;;;39.30;17.42;;;5.30;88.40;;;;;;6202333;28;20064;-78
2022/01/15 12:55:50;;;;;;;45.20;19.00;;;5.40;85.20;;;;;;6212219;28;20053;-79
2022/01/15 12:58:53;;;;;;;36.90;19.13;;;5.40;86.40;;;;;;6209696;28;20413;-79
2022/01/15 13:01:55;;;;;;;36.92;16.67;;;5.50;86.50;;;;;;6203791;28;20046;-79
2022/01/15 13:04:58;;;;;;;37.75;16.20;;;5.80;85.50;;;;;;6206637;28;20041;-80
2022/01/15 13:08:03;;;;;;;41.25;18.45;;;5.60;83.40;;;;;;6228111;28;20050;-80
2022/01/15 13:11:08;;;;;;;39.88;16.52;;;5.40;83.80;;;;;;6228507;28;20042;-78
2022/01/15 13:14:09;;;;;;;43.75;19.45;;;5.30;83.80;;;;;;6225129;28;20089;-78
2022/01/15 13:17:23;;;;;;;37.83;16.55;;;5.20;84.50;;;;;;6225505;28;20503;-78
2022/01/15 13:20:31;;;;;;;36.88;15.98;;;5.10;84.50;;;;;;6214181;28;20050;-78
2022/01/15 13:23:39;;;;;;;41.05;17.52;;;4.90;84.40;;;;;;6226582;28;20435;-79
2022/01/15 13:26:42;;;;;;;42.38;17.13;;;4.60;85.60;;;;;;6216851;28;20415;-80
2022/01/15 13:29:44;;;;;;;38.70;17.63;;;4.60;86.80;;;;;;6226408;28;20056;-80
2022/01/15 13:32:54;;;;;;;47.95;18.38;;;4.80;86.90;;;;;;6225787;28;20050;-79
2022/01/15 13:36:04;;;;;;;38.35;17.35;;;5.00;86.30;;;;;;6225982;28;20046;-79
2022/01/15 13:39:06;;;;;;;42.88;20.23;;;5.10;85.50;;;;;;6225419;28;20050;-79
2022/01/15 13:42:19;;;;;;;45.60;22.25;;;5.10;85.60;;;;;;6225183;28;20172;-79
2022/01/15 13:45:21;;;;;;;25.55;13.55;;;5.20;85.90;;;;;;6226005;28;20129;-79
2022/01/15 13:48:25;;;;;;;43.90;19.08;;;5.20;84.70;;;;;;6226212;28;20176;-78
2022/01/15 13:54:57;;;;;;;45.35;19.23;;;5.00;85.10;;;;;;6225426;28;20050;-78
2022/01/15 13:58:09;;;;;;;33.95;14.02;;;5.00;85.50;;;;;;6217260;28;20140;-78
2022/01/15 14:01:20;;;;;;;31.35;14.65;;;4.90;85.20;;;;;;6226207;28;20041;-78
2022/01/15 14:04:24;;;;;;;41.30;19.60;;;4.80;86.10;;;;;;6225190;28;20144;-79
2022/01/15 14:07:28;;;;;;;47.88;19.85;;;4.60;86.10;;;;;;6225651;28;20599;-78
2022/01/15 14:10:30;;;;;;;49.55;20.85;;;4.60;86.60;;;;;;6226002;28;20188;-80
2022/01/15 14:13:32;;;;;;;35.75;14.07;;;4.60;86.50;;;;;;6225397;28;20086;-80
2022/01/15 14:16:34;;;;;;;44.88;18.77;;;4.70;86.70;;;;;;6224558;28;20121;-79
2022/01/15 14:23:07;;;;;;;47.13;19.77;;;4.40;86.80;;;;;;6235461;28;20041;-80
2022/01/15 14:26:16;;;;;;;50.10;21.83;;;4.40;87.70;;;;;;6218524;28;20043;-80
2022/01/15 14:29:17;;;;;;;51.65;22.15;;;4.40;88.10;;;;;;6221210;28;20053;-78
2022/01/15 14:32:20;;;;;;;51.63;20.40;;;4.50;87.80;;;;;;6223383;28;20080;-78
2022/01/15 14:35:25;;;;;;;51.00;23.52;;;4.50;88.00;;;;;;6222322;28;20067;-78
2022/01/15 14:38:28;;;;;;;48.10;22.60;;;4.50;87.70;;;;;;6222506;28;20050;-78
2022/01/15 14:41:30;;;;;;;51.95;22.33;;;4.60;87.80;;;;;;6214943;28;20053;-78
2022/01/15 14:44:32;;;;;;;51.95;22.33;;;4.50;88.10;;;;;;6222362;28;20100;-79
2022/01/15 14:47:33;;;;;;;55.85;23.45;;;4.60;88.00;;;;;;6225336;28;20049;-79
2022/01/15 14:50:35;;;;;;;49.97;21.15;;;4.70;87.60;;;;;;6228656;28;20087;-79
2022/01/15 14:53:39;;;;;;;53.85;22.83;;;4.70;87.30;;;;;;6223902;28;20090;-79
2022/01/15 14:56:40;;;;;;;45.92;20.70;;;4.60;87.50;;;;;;6217031;28;20056;-79
2022/01/15 14:59:42;;;;;;;39.88;16.80;;;4.50;87.70;;;;;;6219641;28;20129;-77
2022/01/15 15:02:44;;;;;;;52.25;20.80;;;4.50;88.10;;;;;;6224554;28;20042;-78
2022/01/15 15:05:46;;;;;;;57.35;20.65;;;4.50;88.40;;;;;;6224601;28;20503;-79
2022/01/15 15:08:49;;;;;;;52.78;22.10;;;4.60;88.40;;;;;;6225048;28;20173;-77
2022/01/15 15:11:51;;;;;;;52.08;22.83;;;4.60;88.10;;;;;;6225900;28;20049;-79
2022/01/15 15:14:53;;;;;;;34.90;17.55;;;4.60;88.50;;;;;;6222010;28;20054;-79
2022/01/15 15:17:55;;;;;;;42.58;16.42;;;4.60;88.10;;;;;;6223665;28;20500;-80
2022/01/15 15:20:56;;;;;;;52.38;19.65;;;4.40;88.60;;;;;;6227040;28;20124;-81
2022/01/15 15:24:00;;;;;;;41.33;17.25;;;4.30;89.00;;;;;;6228950;28;20050;-79
2022/01/15 15:27:02;;;;;;;41.22;18.38;;;4.30;89.50;;;;;;6214125;28;20125;-78
2022/01/15 15:30:06;;;;;;;47.58;20.35;;;4.30;89.50;;;;;;6222925;28;20137;-79
2022/01/15 15:33:08;;;;;;;47.25;20.45;;;4.30;89.80;;;;;;6222080;28;20046;-78
2022/01/15 15:36:10;;;;;;;51.33;21.65;;;4.30;89.60;;;;;;6224950;28;20049;-79
2022/01/15 15:39:14;;;;;;;48.10;21.58;;;4.30;89.60;;;;;;6224461;28;20503;-78
2022/01/15 15:42:16;;;;;;;43.38;16.83;;;4.20;89.60;;;;;;6224201;28;20078;-79
2022/01/15 15:45:18;;;;;;;44.15;19.58;;;4.30;90.00;;;;;;6224686;28;20042;-79
2022/01/15 15:48:20;;;;;;;54.65;23.23;;;4.20;90.00;;;;;;6224224;28;20077;-79
2022/01/15 15:51:21;;;;;;;41.17;14.77;;;4.20;90.20;;;;;;6229253;28;20060;-79
2022/01/15 15:54:25;;;;;;;51.78;19.77;;;4.20;90.20;;;;;;6224510;28;20141;-79
2022/01/15 15:57:27;;;;;;;44.05;16.27;;;4.20;90.20;;;;;;6215888;28;20103;-78
2022/01/15 16:00:29;;;;;;;49.67;20.75;;;4.10;90.40;;;;;;6224958;28;20068;-80
2022/01/15 16:03:31;;;;;;;44.78;18.58;;;4.10;90.50;;;;;;6229881;28;20133;-79
2022/01/15 16:06:32;;;;;;;44.75;17.98;;;4.20;90.50;;;;;;6228283;28;20049;-79
2022/01/15 16:09:36;;;;;;;47.30;19.13;;;4.30;90.30;;;;;;6230913;28;20050;-79